Terminal Aerodrome Forecast
Issued by NWS

Home | Current Version | Previous Version | Text Only | Print | Product List | Glossary On
Versions: 1 2 3 4 5 6 7 8 9 10 11 12 13 14 15 16 17 18 19 20 21 22 23 24 25 26 27 28
000
FTUS43 KDMX 201244 AAA
TAFFOD
TAF AMD
KFOD 201244Z 2013/2112 VRB04KT 3SM BR OVC020
      TEMPO 2013/2016 OVC009
     FM201600 14005KT 3SM BR BKN009
     FM210300 10005KT 2SM -RA BR OVC005=

USA.gov is the U.S. government's official web portal to all federal, state and local government web resources and services.